Marathon, FL (33050)

2:30 PM EDT on March 27, 2017 (GMT -0400)
MD5073 | | Change Station

Elev 13 ft 24.74 °N, 80.98 °W | Updated 12 days ago

Partly Cloudy
Partly Cloudy
74.0 °F
Feels Like 76 °F
N
10.0
Wind Variable Wind from West
Gusts 17.0 mph

Today
High -- | Low -- °F
--% Chance of Precip.
Yesterday
High -- | Low -- °F
Precip. -- in
Pressure 30.06 in
Visibility 10.0 miles
Clouds Few 3300 ft
Few 5500 ft
Heat Index 76 °F
Dew Point 64 °F
Humidity 70%
Rainfall 0.00 in
Snow Depth Not available.
7:20 AM 7:38 PM
Waning Crescent, 0% visible
METAR KNQX 271753Z 02011KT 10SM FEW033 FEW055 27/19 A3006 RMK AO2 SLP179 T02670189 10267 20222 58006 $
Pressure 30.06 in
Visibility 10.0 miles
Clouds Few 3300 ft
Few 5500 ft
Heat Index 76 °F
Dew Point 64 °F
Humidity 70%
Rainfall 0.00 in
Snow Depth Not available.
7:20 AM 7:38 PM
Waning Crescent, 0% visible
METAR KNQX 271753Z 02011KT 10SM FEW033 FEW055 27/19 A3006 RMK AO2 SLP179 T02670189 10267 20222 58006 $

Get Severe Weather Alerts

Thanks for signing up!

Be on the lookout for a verification email in your inbox.

You'll start receiving the daily forecast at 8 AM.

×

10-Day Weather Forecast

Almanac

Astronomy

Mar. 27, 2017 Rise Set
Actual Time
Civil Twilight
Nautical Twilight
Astronomical Twilight
Moon
Length of Visible Light
Length of Day
Tomorrow will be .
, % of the Moon is Illuminated

Today's Extremes

State Highs State Lows

Community

WunderPhotos

Upload Photos

1,962,540 photos uploaded!

WunderBlog® & News

Nearby

Air Quality

  Air Quality AQ Index Pollutant
Not available.

Snow Depth

Station Depth Elevation

Earthquake Activity

City Distance Mag. Time & Date
Minimum magnitude displayed is 2.5.

Earthquake Activity

City Distance Mag. Time & Date
Minimum magnitude displayed is 2.5.

Coastal Water Temperatures

Place Temperature

Stations

Nearby Weather Stations

Station Location Temp. Windchill Dew Point Humidity Wind Precip. Elev Updated Type
                   

Watches & Warnings

There are currently no watches in effect.